createdAt,value
2023-04-28T00:00:50.123Z,5.33
2023-04-28T00:03:55.569Z,5.28
2023-04-28T00:07:01.004Z,5.23
2023-04-28T00:10:07.357Z,5.17
2023-04-28T00:13:14.610Z,5.13
2023-04-28T00:16:19.823Z,5.03
2023-04-28T00:19:25.245Z,5.06
2023-04-28T00:22:31.389Z,5.05
2023-04-28T00:25:36.445Z,5.15
2023-04-28T00:28:42.933Z,5.01
2023-04-28T00:31:48.109Z,5.02
2023-04-28T00:34:53.590Z,5.02
2023-04-28T00:37:58.738Z,4.98
2023-04-28T00:41:03.955Z,4.91
2023-04-28T00:44:10.477Z,4.82
2023-04-28T00:47:15.974Z,4.85
2023-04-28T00:50:21.096Z,4.81
2023-04-28T00:53:27.730Z,4.72
2023-04-28T00:56:32.895Z,4.70
2023-04-28T00:59:39.767Z,4.63
2023-04-28T01:02:48.335Z,4.77
2023-04-28T01:05:53.871Z,4.63
2023-04-28T01:08:59.305Z,4.66
2023-04-28T01:12:04.525Z,4.59
2023-04-28T01:15:31.647Z,4.70
2023-04-28T01:18:37.015Z,4.55
2023-04-28T01:21:42.911Z,4.48
2023-04-28T01:25:04.579Z,4.45
2023-04-28T01:28:10.233Z,4.58
2023-04-28T01:31:15.591Z,4.45
2023-04-28T01:34:20.874Z,4.47
2023-04-28T01:37:25.946Z,4.34
2023-04-28T01:40:34.056Z,4.35
2023-04-28T01:43:39.060Z,4.33
2023-04-28T01:46:44.177Z,4.39
2023-04-28T01:49:50.200Z,4.38
2023-04-28T01:52:55.227Z,4.33
2023-04-28T01:56:02.616Z,4.31
2023-04-28T01:59:07.740Z,4.30
2023-04-28T02:02:13.045Z,4.22
2023-04-28T02:05:18.404Z,4.09
2023-04-28T02:08:26.250Z,4.00
2023-04-28T02:11:32.770Z,4.14
2023-04-28T02:14:38.062Z,4.13
2023-04-28T02:17:42.837Z,3.96
2023-04-28T02:20:47.928Z,3.93
2023-04-28T02:23:53.272Z,4.03
2023-04-28T02:26:59.839Z,3.92
2023-04-28T02:30:07.286Z,3.89
2023-04-28T02:33:13.225Z,3.99
2023-04-28T02:36:18.489Z,3.95
2023-04-28T02:39:26.825Z,4.00
2023-04-28T02:42:36.374Z,4.03
2023-04-28T02:45:41.502Z,4.01
2023-04-28T02:48:46.694Z,4.07
2023-04-28T02:51:52.110Z,4.12
2023-04-28T02:54:57.861Z,4.04
2023-04-28T02:58:05.256Z,4.13
2023-04-28T03:01:13.428Z,4.20
2023-04-28T03:04:19.004Z,4.16
2023-04-28T03:07:24.505Z,4.20
2023-04-28T03:10:29.606Z,4.27
2023-04-28T03:13:36.707Z,4.30
2023-04-28T03:16:42.826Z,4.44
2023-04-28T03:19:48.088Z,4.53
2023-04-28T03:22:53.403Z,4.52
2023-04-28T03:25:58.584Z,4.51
2023-04-28T03:29:06.237Z,4.54
2023-04-28T03:32:13.795Z,4.50
2023-04-28T03:35:19.077Z,4.60
2023-04-28T03:38:24.388Z,4.57
2023-04-28T03:41:30.030Z,4.60
2023-04-28T03:45:05.956Z,4.58
2023-04-28T03:48:13.039Z,4.69
2023-04-28T03:51:18.398Z,4.45
2023-04-28T03:54:23.688Z,4.55
2023-04-28T03:57:28.789Z,4.70
2023-04-28T04:00:36.421Z,4.74
2023-04-28T04:03:41.890Z,4.76
2023-04-28T04:06:47.401Z,4.96
2023-04-28T04:09:52.631Z,5.00
2023-04-28T04:12:57.728Z,5.01
2023-04-28T04:16:04.601Z,4.88
2023-04-28T04:19:09.850Z,4.95
2023-04-28T04:22:22.130Z,4.93
2023-04-28T04:25:27.210Z,5.07
2023-04-28T04:28:34.133Z,5.05
2023-04-28T04:31:41.074Z,5.06
2023-04-28T04:34:46.306Z,5.09
2023-04-28T04:37:51.672Z,5.05
2023-04-28T04:40:57.503Z,4.95
2023-04-28T04:44:02.814Z,5.13
2023-04-28T04:47:16.345Z,5.19
2023-04-28T04:50:21.703Z,5.32
2023-04-28T04:53:26.924Z,5.39
2023-04-28T04:56:34.238Z,5.43
2023-04-28T04:59:39.523Z,5.14
2023-04-28T05:02:51.058Z,5.36
2023-04-28T05:05:56.555Z,5.35
2023-04-28T05:09:29.198Z,5.43
2023-04-28T05:12:34.439Z,5.30
2023-04-28T05:15:39.712Z,5.44
2023-04-28T05:19:02.343Z,5.27
2023-04-28T05:22:07.576Z,5.50
2023-04-28T05:25:15.085Z,5.71
2023-04-28T05:28:22.298Z,5.66
2023-04-28T05:31:31.703Z,5.58
2023-04-28T05:34:38.701Z,5.68
2023-04-28T05:37:45.214Z,5.68
2023-04-28T05:40:50.770Z,5.66
2023-04-28T05:43:56.288Z,5.63
2023-04-28T05:47:01.944Z,5.70
2023-04-28T05:50:10.253Z,5.46
2023-04-28T05:53:15.419Z,5.70
2023-04-28T05:56:21.271Z,5.84
2023-04-28T05:59:28.864Z,5.71
2023-04-28T06:02:36.286Z,5.68
2023-04-28T06:05:43.399Z,6.03
2023-04-28T06:08:48.938Z,5.94
2023-04-28T06:11:54.191Z,5.81
2023-04-28T06:14:59.343Z,5.87
2023-04-28T06:18:06.276Z,5.92
2023-04-28T06:21:13.190Z,6.10
2023-04-28T06:24:18.748Z,6.00
2023-04-28T06:27:25.986Z,6.06
2023-04-28T06:30:31.549Z,5.92
2023-04-28T06:33:36.930Z,6.08
2023-04-28T06:36:43.586Z,6.32
2023-04-28T06:39:49.019Z,6.42
2023-04-28T06:42:54.799Z,6.34
2023-04-28T06:46:07.579Z,6.26
2023-04-28T06:49:12.809Z,6.41
2023-04-28T06:52:27.056Z,6.47
2023-04-28T06:55:38.546Z,6.42
2023-04-28T06:58:43.748Z,6.38
2023-04-28T07:01:49.091Z,6.48
2023-04-28T07:04:54.462Z,6.61
2023-04-28T07:08:01.263Z,6.89
2023-04-28T07:11:06.979Z,6.39
2023-04-28T07:14:13.823Z,6.47
2023-04-28T07:17:19.095Z,6.94
2023-04-28T07:20:24.702Z,6.86
2023-04-28T07:23:31.907Z,6.54
2023-04-28T07:26:36.970Z,6.54
2023-04-28T07:29:42.250Z,6.38
2023-04-28T07:32:47.382Z,6.56
2023-04-28T07:35:53.173Z,6.60
2023-04-28T07:39:01.337Z,6.53
2023-04-28T07:42:06.750Z,6.47
2023-04-28T07:45:12.989Z,6.64
2023-04-28T07:48:18.502Z,6.82
2023-04-28T07:51:23.686Z,7.14
2023-04-28T07:54:30.177Z,6.97
2023-04-28T07:57:35.307Z,7.14
2023-04-28T08:00:41.247Z,7.04
2023-04-28T08:03:46.908Z,7.25
2023-04-28T08:06:52.084Z,7.41
2023-04-28T08:09:58.564Z,7.20
2023-04-28T08:13:03.920Z,7.00
2023-04-28T08:16:09.628Z,6.63
2023-04-28T08:19:14.800Z,7.09
2023-04-28T08:22:20.071Z,7.33
2023-04-28T08:25:26.805Z,7.49
2023-04-28T08:28:34.064Z,7.51
2023-04-28T08:31:39.408Z,7.28
2023-04-28T08:34:44.527Z,7.24
2023-04-28T08:37:49.748Z,7.37
2023-04-28T08:40:56.389Z,7.33
2023-04-28T08:44:01.479Z,7.28
2023-04-28T08:47:10.006Z,7.47
2023-04-28T08:50:15.943Z,7.17
2023-04-28T08:53:25.276Z,6.49
2023-04-28T08:56:34.985Z,6.80
2023-04-28T08:59:41.839Z,6.74
2023-04-28T09:02:47.444Z,6.67
2023-04-28T09:05:52.806Z,6.95
2023-04-28T09:08:58.074Z,6.89
2023-04-28T09:12:05.427Z,6.63
2023-04-28T09:15:13.135Z,6.59
2023-04-28T09:18:18.234Z,6.81
2023-04-28T09:21:23.289Z,7.31
2023-04-28T09:24:30.001Z,7.56
2023-04-28T09:27:36.594Z,7.54
2023-04-28T09:30:42.024Z,7.67
2023-04-28T09:33:58.673Z,7.77
2023-04-28T09:37:17.376Z,7.88
2023-04-28T09:40:22.674Z,7.60
2023-04-28T09:43:33.326Z,7.87
2023-04-28T09:46:38.534Z,7.97
2023-04-28T09:49:56.303Z,7.83
2023-04-28T09:53:04.216Z,8.03
2023-04-28T09:56:09.761Z,8.15
2023-04-28T09:59:16.743Z,8.32
2023-04-28T10:02:42.824Z,8.44
2023-04-28T10:05:49.935Z,8.47
2023-04-28T10:08:55.637Z,8.54
2023-04-28T10:12:01.083Z,8.75
2023-04-28T10:15:08.954Z,8.93
2023-04-28T10:18:15.937Z,8.96
2023-04-28T10:21:22.008Z,8.74
2023-04-28T10:24:30.354Z,8.81
2023-04-28T10:27:36.480Z,8.46
2023-04-28T10:30:43.268Z,8.64
2023-04-28T10:33:48.792Z,8.85
2023-04-28T10:36:55.733Z,8.88
2023-04-28T10:40:33.474Z,8.88
2023-04-28T10:43:40.313Z,8.94
2023-04-28T10:47:03.294Z,8.73
2023-04-28T10:50:11.806Z,8.80
2023-04-28T10:53:17.489Z,8.90
2023-04-28T10:56:26.547Z,8.91
2023-04-28T10:59:31.659Z,8.91
2023-04-28T11:02:46.309Z,9.07
2023-04-28T11:06:21.528Z,9.00
2023-04-28T11:09:50.473Z,8.80
2023-04-28T11:13:32.011Z,9.13
2023-04-28T11:16:52.009Z,9.17
2023-04-28T11:20:00.165Z,9.24
2023-04-28T11:23:06.760Z,9.56
2023-04-28T11:26:11.961Z,9.75
2023-04-28T11:29:17.211Z,9.77
2023-04-28T11:32:29.810Z,9.77
2023-04-28T11:35:44.485Z,9.89
2023-04-28T11:38:50.020Z,10.09
2023-04-28T11:41:55.253Z,10.27
2023-04-28T11:45:00.322Z,10.30
2023-04-28T11:48:23.271Z,10.18
2023-04-28T11:51:40.198Z,10.13
2023-04-28T11:54:45.517Z,10.20
2023-04-28T11:57:50.701Z,10.35
2023-04-28T12:01:12.085Z,9.98
2023-04-28T12:04:27.990Z,10.25
2023-04-28T12:07:43.930Z,10.31
2023-04-28T12:11:10.910Z,10.41
2023-04-28T12:14:16.072Z,10.73
2023-04-28T12:17:26.677Z,10.76
2023-04-28T12:20:39.338Z,10.58
2023-04-28T12:23:46.504Z,10.57
2023-04-28T12:26:51.747Z,10.47
2023-04-28T12:29:58.370Z,10.48
2023-04-28T12:33:04.481Z,10.60
2023-04-28T12:36:12.809Z,10.57
2023-04-28T12:39:20.148Z,10.36
2023-04-28T12:42:25.209Z,10.31
2023-04-28T12:45:31.349Z,10.03
2023-04-28T12:48:36.625Z,10.34
2023-04-28T12:51:41.954Z,10.47
2023-04-28T12:54:48.648Z,10.63
2023-04-28T12:57:53.779Z,10.41
2023-04-28T13:00:59.128Z,10.47
2023-04-28T13:04:04.984Z,10.78
2023-04-28T13:07:10.589Z,11.13
2023-04-28T13:10:18.263Z,11.17
2023-04-28T13:13:23.434Z,11.34
2023-04-28T13:16:30.522Z,11.19
2023-04-28T13:19:35.909Z,11.54
2023-04-28T13:22:42.084Z,11.29
2023-04-28T13:25:48.665Z,11.15
2023-04-28T13:28:53.906Z,11.46
2023-04-28T13:31:58.983Z,11.10
2023-04-28T13:35:04.138Z,11.15
2023-04-28T13:38:09.659Z,11.51
2023-04-28T13:41:16.405Z,11.48
2023-04-28T13:44:21.582Z,11.43
2023-04-28T13:47:26.946Z,11.32
2023-04-28T13:50:32.197Z,11.14
2023-04-28T13:53:38.539Z,11.24
2023-04-28T13:56:45.278Z,11.47
2023-04-28T13:59:50.359Z,11.33
2023-04-28T14:02:55.789Z,11.36
2023-04-28T14:06:01.885Z,11.43
2023-04-28T14:09:07.450Z,11.35
2023-04-28T14:12:15.594Z,11.03
2023-04-28T14:15:20.784Z,11.16
2023-04-28T14:18:26.193Z,11.02
2023-04-28T14:21:31.525Z,10.98
2023-04-28T14:24:36.892Z,10.94
2023-04-28T14:27:43.495Z,10.49
2023-04-28T14:30:50.100Z,10.15
2023-04-28T14:33:55.334Z,10.05
2023-04-28T14:37:00.481Z,9.93
2023-04-28T14:40:07.452Z,10.00
2023-04-28T14:43:14.987Z,10.06
2023-04-28T14:46:23.062Z,10.10
2023-04-28T14:49:28.989Z,9.90
2023-04-28T14:52:34.346Z,9.95
2023-04-28T14:55:39.595Z,10.00
2023-04-28T14:58:46.195Z,9.86
2023-04-28T15:01:52.282Z,9.85
2023-04-28T15:04:58.335Z,9.84
2023-04-28T15:08:03.731Z,9.71
2023-04-28T15:11:09.215Z,9.63
2023-04-28T15:14:15.892Z,9.69
2023-04-28T15:17:21.050Z,9.81
2023-04-28T15:20:28.638Z,9.77
2023-04-28T15:23:34.974Z,9.72
2023-04-28T15:26:40.167Z,9.74
2023-04-28T15:29:46.744Z,9.67
2023-04-28T15:32:52.304Z,9.76
2023-04-28T15:35:57.559Z,9.66
2023-04-28T15:39:02.887Z,9.75
2023-04-28T15:42:08.286Z,9.75
2023-04-28T15:45:16.064Z,9.75
2023-04-28T15:48:21.342Z,9.66
2023-04-28T15:51:26.701Z,9.74
2023-04-28T15:54:31.939Z,9.65
2023-04-28T15:57:37.699Z,9.68
2023-04-28T16:00:45.952Z,9.56
2023-04-28T16:03:51.736Z,9.52
2023-04-28T16:06:58.908Z,9.44
2023-04-28T16:10:05.465Z,9.48
2023-04-28T16:13:13.650Z,9.52
2023-04-28T16:16:20.220Z,9.53
2023-04-28T16:19:26.094Z,9.53
2023-04-28T16:22:31.410Z,9.31
2023-04-28T16:25:37.021Z,9.39
2023-04-28T16:28:42.307Z,9.52
2023-04-28T16:31:48.958Z,9.42
2023-04-28T16:34:54.203Z,9.30
2023-04-28T16:37:59.432Z,9.29
2023-04-28T16:41:04.744Z,9.40
2023-04-28T16:44:10.360Z,9.56
2023-04-28T16:47:17.101Z,9.53
2023-04-28T16:50:22.281Z,9.55
2023-04-28T16:53:27.940Z,9.56
2023-04-28T16:56:34.307Z,9.52
2023-04-28T16:59:39.558Z,9.43
2023-04-28T17:02:46.361Z,9.44
2023-04-28T17:05:52.615Z,9.46
2023-04-28T17:08:58.947Z,9.39
2023-04-28T17:12:05.100Z,9.32
2023-04-28T17:15:11.306Z,9.38
2023-04-28T17:18:18.092Z,9.39
2023-04-28T17:21:23.192Z,9.40
2023-04-28T17:24:28.429Z,9.21
2023-04-28T17:27:33.860Z,9.26
2023-04-28T17:30:40.858Z,9.24
2023-04-28T17:33:48.666Z,9.32
2023-04-28T17:36:53.812Z,9.23
2023-04-28T17:39:59.042Z,9.17
2023-04-28T17:43:04.367Z,9.13
2023-04-28T17:46:27.701Z,9.17
2023-04-28T17:49:33.202Z,9.17
2023-04-28T17:52:38.990Z,9.01
2023-04-28T17:55:44.235Z,9.22
2023-04-28T17:58:49.498Z,9.14
2023-04-28T18:01:56.921Z,9.15
2023-04-28T18:05:02.455Z,9.04
2023-04-28T18:08:08.281Z,9.05
2023-04-28T18:11:14.188Z,9.13
2023-04-28T18:14:19.386Z,9.09
2023-04-28T18:17:26.375Z,8.92
2023-04-28T18:20:31.708Z,8.88
2023-04-28T18:23:36.873Z,8.76
2023-04-28T18:26:42.354Z,8.64
2023-04-28T18:29:47.708Z,8.76
2023-04-28T18:32:54.522Z,8.73
2023-04-28T18:36:05.257Z,8.63
2023-04-28T18:39:12.659Z,8.51
2023-04-28T18:42:17.790Z,8.53
2023-04-28T18:45:23.070Z,8.41
2023-04-28T18:48:29.673Z,8.39
2023-04-28T18:51:35.120Z,8.38
2023-04-28T18:54:40.248Z,8.29
2023-04-28T18:57:45.446Z,8.16
2023-04-28T19:00:50.774Z,8.22
2023-04-28T19:03:57.772Z,8.24
2023-04-28T19:07:03.414Z,8.25
2023-04-28T19:10:09.585Z,8.22
2023-04-28T19:13:15.224Z,8.20
2023-04-28T19:16:20.510Z,8.08
2023-04-28T19:19:27.159Z,7.94
2023-04-28T19:22:33.313Z,8.11
2023-04-28T19:25:38.451Z,7.92
2023-04-28T19:28:43.717Z,7.96
2023-04-28T19:31:50.263Z,7.83
2023-04-28T19:34:56.845Z,7.76
2023-04-28T19:38:02.027Z,7.85
2023-04-28T19:41:07.505Z,7.75
2023-04-28T19:44:13.801Z,7.67
2023-04-28T19:47:25.054Z,7.76
2023-04-28T19:50:31.721Z,7.87
2023-04-28T19:53:40.532Z,7.71
2023-04-28T19:56:45.658Z,7.66
2023-04-28T19:59:51.555Z,7.73
2023-04-28T20:02:57.258Z,7.74
2023-04-28T20:06:03.994Z,7.64
2023-04-28T20:09:09.777Z,7.44
2023-04-28T20:12:15.343Z,7.36
2023-04-28T20:15:20.940Z,7.41
2023-04-28T20:18:26.713Z,7.22
2023-04-28T20:21:35.232Z,7.33
2023-04-28T20:24:40.524Z,7.31
2023-04-28T20:27:47.059Z,7.37
2023-04-28T20:30:53.521Z,7.29
2023-04-28T20:33:59.047Z,7.27
2023-04-28T20:37:06.740Z,7.20
2023-04-28T20:40:13.374Z,7.07
2023-04-28T20:43:18.914Z,7.16
2023-04-28T20:46:24.366Z,7.09
2023-04-28T20:49:29.612Z,7.13
2023-04-28T20:52:36.456Z,7.01
2023-04-28T20:55:42.118Z,6.94
2023-04-28T20:58:48.005Z,6.90
2023-04-28T21:01:53.222Z,6.96
2023-04-28T21:04:58.427Z,6.92
2023-04-28T21:08:05.368Z,6.83
2023-04-28T21:11:14.046Z,6.54
2023-04-28T21:14:19.240Z,6.59
2023-04-28T21:17:24.338Z,6.64
2023-04-28T21:20:29.886Z,6.77
2023-04-28T21:23:37.727Z,6.78
2023-04-28T21:26:42.927Z,6.71
2023-04-28T21:29:48.449Z,6.63
2023-04-28T21:32:53.906Z,6.70
2023-04-28T21:35:59.570Z,6.70
2023-04-28T21:39:06.334Z,6.70
2023-04-28T21:42:12.103Z,6.50
2023-04-28T21:45:17.585Z,6.41
2023-04-28T21:48:22.670Z,6.35
2023-04-28T21:51:27.794Z,6.25
2023-04-28T21:54:34.528Z,6.12
2023-04-28T21:57:39.696Z,6.18
2023-04-28T22:00:46.554Z,6.08
2023-04-28T22:03:51.849Z,5.96
2023-04-28T22:06:57.317Z,6.15
2023-04-28T22:10:03.978Z,6.15
2023-04-28T22:13:09.377Z,6.18
2023-04-28T22:16:14.639Z,6.01
2023-04-28T22:19:19.758Z,6.14
2023-04-28T22:22:25.390Z,6.09
2023-04-28T22:25:31.902Z,6.07
2023-04-28T22:28:37.572Z,6.05
2023-04-28T22:31:42.760Z,6.06
2023-04-28T22:34:48.259Z,6.04
2023-04-28T22:37:53.332Z,5.99
2023-04-28T22:40:59.913Z,6.00
2023-04-28T22:44:05.152Z,5.93
2023-04-28T22:47:10.297Z,5.87
2023-04-28T22:50:15.418Z,5.95
2023-04-28T22:53:20.859Z,5.94
2023-04-28T22:56:27.359Z,5.90
2023-04-28T22:59:33.888Z,5.80
2023-04-28T23:02:39.082Z,5.65
2023-04-28T23:05:44.385Z,5.63
2023-04-28T23:08:49.420Z,5.69
2023-04-28T23:11:56.744Z,5.71
2023-04-28T23:15:02.131Z,5.68
2023-04-28T23:18:07.689Z,5.68
2023-04-28T23:21:13.491Z,5.69
2023-04-28T23:24:18.832Z,5.62
2023-04-28T23:27:25.407Z,5.56
2023-04-28T23:30:30.515Z,5.50
2023-04-28T23:33:35.609Z,5.59
2023-04-28T23:36:40.843Z,5.62
2023-04-28T23:39:46.196Z,5.62
2023-04-28T23:42:52.686Z,5.59
2023-04-28T23:45:58.003Z,5.52
2023-04-28T23:49:03.786Z,5.63
2023-04-28T23:52:08.886Z,5.56
2023-04-28T23:55:15.344Z,5.52
2023-04-28T23:58:22.288Z,5.48
